Alleyton, Texas
Current Conditions -  °F | °C
As of 5:55 AM on Monday 24 Nov 2014 (Local Time) from K66R Reporting Station
Clear Clear  
Wind Chill: 47°   Ceiling: Unl
Heat Index: 49°   Visibility: 10mi
Dew Point: 38°   Wind: 7mph
Humidity: 66%   Direction: 350°N
Pressure: 29.94"   Gusts: NA
Location:  29.71°N, 96.49°W
Report Text: K66R 241155Z AUTO 35006KT 10SM CLR 10/04 A2994 RMK AO2 T00970036 10161 20097
Loading
Personal Weather Stations






























Interactive Weather Map New forecast layout! Learn more

10-Day Weather Forecast

Advertisements
Track Severe Weather on mobile